Nearby METAR Reports

 

KSBP - San Luis Obispo, California, USA
Distance from station: S 14mi, 22km
Updated: Tue, 10-Dec-2019 5:56am PST
Clear
Clear
 Wind from ESE
Wind: ESE 6 mph , 9 km/h
Temperature: 45°F , 7°C
Wind Chill: 42°F , 6°C
Dew Point: 43°F , 6°C
Humidity: 93%
Barometer: 1022 hPa
Clouds: Clear
Visibility: 10 miles , 16 km
2019/12/10 13:56 KSBP 101356Z 12005KT 10SM CLR 07/06 A3018 RMK AO2 SLP220 T00720056
KPRB - Paso Robles, California, USA
Distance from station: N 16mi, 26km
Updated: Tue, 10-Dec-2019 5:53am PST
Few Clouds
Few Clouds
 
Temperature: 43°F , 6°C
Dew Point: 43°F , 6°C
Humidity: 100%
Barometer: 1023.4 hPa
Clouds: Few Clouds
Visibility: 10 miles , 16 km
Cloud details: Few Clouds 500 ft
2019/12/10 13:53 KPRB 101353Z AUTO 10SM FEW005 06/06 A3022 RMK AO2 SLP234 T00610056 $
 
KSMX - Santa Maria, California, USA
Distance from station: SSE 38mi, 62km
Updated: Tue, 10-Dec-2019 5:51am PST
Clear
Clear
 Wind from SE
Wind: SE 3 mph , 6 km/h
Temperature: 45°F , 7°C
Dew Point: 41°F , 5°C
Humidity: 87%
Barometer: 1022.4 hPa
Clouds: Clear
Visibility: 10 miles , 16 km
2019/12/10 13:51 KSMX 101351Z 14003KT 10SM CLR 07/05 A3019 RMK AO2 SLP228 T00720050
KVBG - Vandenberg Afb, California, USA
Distance from station: S 48mi, 78km
Updated: Tue, 10-Dec-2019 4:58am PST
Clear
Clear
 Wind from SSE
Wind: SSE 6 mph , 9 km/h
Temperature: 45°F , 7°C
Wind Chill: 42°F , 6°C
Dew Point: 43°F , 6°C
Humidity: 93%
Barometer: 1022 hPa
Clouds: Clear
Visibility: 9 miles , 14 km
2019/12/10 12:58 KVBG 101258Z AUTO 15005KT 9SM CLR 07/06 A3018 RMK AO2 SLP224 T00710060